createdAt,value
2017-04-16T00:00:14.232Z,70.40
2017-04-16T00:01:13.500Z,71.10
2017-04-16T00:02:12.704Z,71.00
2017-04-16T00:03:11.905Z,71.50
2017-04-16T00:04:11.152Z,72.20
2017-04-16T00:05:10.368Z,71.60
2017-04-16T00:06:09.576Z,72.20
2017-04-16T00:07:08.783Z,71.00
2017-04-16T00:08:07.997Z,71.10
2017-04-16T00:09:07.983Z,70.50
2017-04-16T00:10:07.200Z,69.50
2017-04-16T00:11:06.420Z,68.30
2017-04-16T00:12:05.671Z,68.50
2017-04-16T00:13:04.923Z,70.40
2017-04-16T00:14:04.173Z,68.40
2017-04-16T00:15:04.165Z,68.80
2017-04-16T00:16:03.409Z,68.70
2017-04-16T00:17:02.621Z,68.50
2017-04-16T00:18:01.840Z,69.00
2017-04-16T00:19:01.067Z,68.50
2017-04-16T00:20:00.284Z,69.10
2017-04-16T00:20:59.507Z,68.70
2017-04-16T00:21:58.729Z,67.60
2017-04-16T00:22:57.957Z,69.60
2017-04-16T00:23:57.284Z,70.90
2017-04-16T00:24:56.492Z,69.30
2017-04-16T00:25:55.709Z,69.30
2017-04-16T00:26:54.940Z,70.20
2017-04-16T00:27:54.180Z,71.00
2017-04-16T00:28:53.393Z,69.60
2017-04-16T00:29:52.656Z,70.50
2017-04-16T00:30:52.612Z,69.20
2017-04-16T00:31:51.840Z,71.10
2017-04-16T00:32:51.792Z,71.70
2017-04-16T00:33:50.224Z,71.70
2017-04-16T00:34:49.499Z,70.90
2017-04-16T00:35:48.700Z,71.50
2017-04-16T00:36:47.907Z,69.60
2017-04-16T00:37:47.115Z,69.30
2017-04-16T00:38:46.332Z,67.80
2017-04-16T00:39:45.588Z,69.50
2017-04-16T00:40:44.809Z,70.40
2017-04-16T00:41:44.024Z,69.90
2017-04-16T00:42:43.257Z,69.80
2017-04-16T00:43:42.484Z,70.40
2017-04-16T00:44:41.728Z,68.60
2017-04-16T00:45:40.960Z,68.30
2017-04-16T00:46:40.422Z,69.20
2017-04-16T00:47:39.630Z,70.00
2017-04-16T00:48:38.853Z,70.40
2017-04-16T00:49:38.085Z,70.60
2017-04-16T00:50:38.048Z,69.80
2017-04-16T00:51:37.248Z,70.70
2017-04-16T00:52:36.469Z,71.80
2017-04-16T00:53:35.685Z,71.60
2017-04-16T00:54:35.237Z,69.40
2017-04-16T00:55:34.485Z,69.40
2017-04-16T00:56:33.692Z,69.00
2017-04-16T00:57:32.904Z,68.70
2017-04-16T00:58:32.112Z,68.30
2017-04-16T00:59:31.323Z,68.00
2017-04-16T01:00:34.791Z,68.50
2017-04-16T01:01:39.508Z,68.10
2017-04-16T01:02:42.628Z,67.40
2017-04-16T01:03:41.839Z,68.80
2017-04-16T01:04:41.376Z,67.70
2017-04-16T01:05:40.612Z,67.60
2017-04-16T01:06:39.844Z,66.60
2017-04-16T01:07:39.071Z,67.70
2017-04-16T01:08:38.288Z,65.60
2017-04-16T01:09:37.511Z,66.80
2017-04-16T01:10:36.740Z,66.90
2017-04-16T01:11:35.955Z,67.60
2017-04-16T01:12:35.187Z,68.50
2017-04-16T01:13:34.685Z,68.60
2017-04-16T01:14:33.895Z,69.60
2017-04-16T01:15:33.144Z,69.00
2017-04-16T01:16:32.372Z,68.70
2017-04-16T01:17:33.183Z,69.50
2017-04-16T01:18:32.400Z,69.70
2017-04-16T01:19:31.619Z,69.60
2017-04-16T01:20:30.919Z,69.90
2017-04-16T01:21:30.142Z,69.70
2017-04-16T01:22:29.356Z,70.20
2017-04-16T01:23:28.596Z,71.50
2017-04-16T01:24:27.813Z,71.40
2017-04-16T01:25:27.084Z,71.10
2017-04-16T01:26:26.312Z,72.10
2017-04-16T01:27:25.528Z,71.90
2017-04-16T01:28:24.785Z,72.10
2017-04-16T01:29:24.000Z,71.30
2017-04-16T01:30:23.585Z,70.70
2017-04-16T01:31:22.800Z,70.80
2017-04-16T01:32:22.809Z,71.30
2017-04-16T01:33:22.016Z,71.90
2017-04-16T01:34:21.220Z,72.30
2017-04-16T01:35:20.428Z,70.00
2017-04-16T01:36:19.664Z,70.70
2017-04-16T01:37:18.867Z,71.20
2017-04-16T01:38:18.097Z,71.00
2017-04-16T01:39:17.388Z,71.80
2017-04-16T01:40:16.598Z,71.00
2017-04-16T01:41:15.924Z,71.40
2017-04-16T01:42:15.133Z,70.10
2017-04-16T01:43:14.348Z,70.20
2017-04-16T01:44:13.587Z,71.30
2017-04-16T01:45:12.809Z,71.90
2017-04-16T01:46:12.093Z,72.20
2017-04-16T01:47:11.308Z,72.50
2017-04-16T01:48:10.632Z,72.50
2017-04-16T01:49:09.857Z,71.60
2017-04-16T01:50:09.084Z,71.80
2017-04-16T01:51:08.346Z,72.10
2017-04-16T01:52:07.583Z,71.30
2017-04-16T01:53:06.788Z,72.50
2017-04-16T01:54:06.759Z,72.90
2017-04-16T01:55:05.976Z,72.40
2017-04-16T01:56:05.224Z,72.40
2017-04-16T01:57:04.472Z,72.30
2017-04-16T01:58:03.707Z,71.60
2017-04-16T01:59:02.940Z,71.20
2017-04-16T02:00:02.185Z,72.20
2017-04-16T02:01:01.792Z,71.10
2017-04-16T02:02:01.014Z,71.90
2017-04-16T02:03:00.241Z,72.40
2017-04-16T02:03:59.543Z,72.40
2017-04-16T02:04:58.861Z,71.90
2017-04-16T02:05:58.830Z,71.90
2017-04-16T02:06:58.179Z,71.80
2017-04-16T02:07:57.416Z,71.30
2017-04-16T02:08:56.637Z,70.90
2017-04-16T02:09:55.921Z,72.00
2017-04-16T02:10:55.150Z,72.30
2017-04-16T02:11:54.408Z,71.60
2017-04-16T02:12:53.641Z,72.50
2017-04-16T02:13:52.871Z,72.90
2017-04-16T02:14:52.101Z,72.70
2017-04-16T02:15:51.316Z,71.90
2017-04-16T02:16:50.612Z,71.00
2017-04-16T02:17:49.982Z,70.70
2017-04-16T02:18:49.224Z,71.10
2017-04-16T02:19:48.480Z,71.50
2017-04-16T02:20:47.696Z,72.30
2017-04-16T02:21:46.942Z,71.50
2017-04-16T02:22:46.157Z,71.80
2017-04-16T02:23:45.391Z,71.90
2017-04-16T02:24:44.647Z,72.50
2017-04-16T02:25:43.961Z,71.60
2017-04-16T02:26:43.208Z,71.10
2017-04-16T02:27:42.421Z,72.20
2017-04-16T02:28:41.648Z,71.90
2017-04-16T02:29:40.859Z,73.00
2017-04-16T02:30:45.656Z,72.60
2017-04-16T02:31:44.509Z,72.50
2017-04-16T02:32:43.745Z,73.40
2017-04-16T02:33:42.947Z,72.20
2017-04-16T02:34:42.203Z,71.90
2017-04-16T02:35:41.793Z,72.70
2017-04-16T02:36:40.994Z,73.40
2017-04-16T02:37:40.256Z,73.60
2017-04-16T02:38:39.472Z,73.10
2017-04-16T02:39:38.692Z,73.20
2017-04-16T02:40:37.899Z,73.10
2017-04-16T02:41:37.117Z,72.70
2017-04-16T02:42:36.356Z,72.60
2017-04-16T02:43:35.563Z,72.40
2017-04-16T02:44:34.776Z,73.00
2017-04-16T02:45:34.001Z,73.80
2017-04-16T02:46:33.209Z,71.60
2017-04-16T02:47:32.475Z,71.90
2017-04-16T02:48:31.765Z,70.70
2017-04-16T02:49:31.046Z,71.10
2017-04-16T02:50:30.280Z,71.80
2017-04-16T02:51:29.525Z,72.00
2017-04-16T02:52:28.759Z,72.70
2017-04-16T02:53:27.976Z,73.20
2017-04-16T02:54:27.193Z,72.60
2017-04-16T02:55:26.459Z,72.00
2017-04-16T02:56:25.722Z,72.10
2017-04-16T02:57:24.970Z,72.00
2017-04-16T02:58:24.195Z,72.50
2017-04-16T02:59:23.412Z,71.30
2017-04-16T03:00:22.636Z,71.20
2017-04-16T03:01:21.835Z,71.70
2017-04-16T03:02:21.112Z,72.20
2017-04-16T03:03:20.348Z,73.20
2017-04-16T03:04:19.632Z,73.50
2017-04-16T03:05:18.858Z,74.00
2017-04-16T03:06:18.088Z,73.40
2017-04-16T03:07:17.325Z,73.90
2017-04-16T03:08:17.320Z,73.40
2017-04-16T03:09:16.548Z,72.70
2017-04-16T03:10:15.776Z,73.80
2017-04-16T03:11:14.988Z,73.30
2017-04-16T03:12:14.284Z,72.80
2017-04-16T03:13:13.749Z,72.60
2017-04-16T03:14:12.973Z,73.60
2017-04-16T03:15:12.184Z,73.70
2017-04-16T03:16:11.407Z,73.80
2017-04-16T03:17:10.661Z,72.40
2017-04-16T03:18:09.905Z,73.90
2017-04-16T03:19:09.140Z,73.20
2017-04-16T03:20:08.348Z,72.40
2017-04-16T03:21:07.588Z,72.50
2017-04-16T03:22:06.836Z,72.00
2017-04-16T03:23:06.087Z,71.70
2017-04-16T03:24:05.293Z,73.50
2017-04-16T03:25:04.532Z,73.80
2017-04-16T03:26:03.760Z,73.10
2017-04-16T03:27:02.997Z,72.90
2017-04-16T03:28:03.012Z,73.20
2017-04-16T03:29:02.282Z,72.80
2017-04-16T03:30:01.504Z,72.50
2017-04-16T03:31:00.718Z,73.00
2017-04-16T03:31:59.941Z,72.80
2017-04-16T03:32:59.173Z,72.80
2017-04-16T03:33:57.634Z,72.80
2017-04-16T03:34:57.091Z,72.90
2017-04-16T03:35:56.300Z,73.40
2017-04-16T03:36:55.516Z,74.00
2017-04-16T03:37:54.763Z,74.40
2017-04-16T03:38:53.980Z,74.10
2017-04-16T03:39:53.220Z,73.60
2017-04-16T03:40:52.447Z,74.00
2017-04-16T03:41:51.669Z,74.10
2017-04-16T03:42:50.916Z,75.30
2017-04-16T03:43:50.146Z,73.60
2017-04-16T03:44:49.356Z,74.80
2017-04-16T03:45:48.572Z,74.70
2017-04-16T03:46:47.797Z,73.80
2017-04-16T03:47:47.112Z,74.40
2017-04-16T03:48:46.345Z,74.70
2017-04-16T03:49:45.564Z,75.00
2017-04-16T03:50:44.781Z,75.70
2017-04-16T03:51:43.999Z,75.60
2017-04-16T03:52:43.210Z,75.40
2017-04-16T03:53:42.460Z,74.50
2017-04-16T03:54:41.677Z,75.20
2017-04-16T03:55:40.892Z,74.60
2017-04-16T03:56:40.108Z,74.90
2017-04-16T03:57:39.320Z,73.40
2017-04-16T03:58:38.552Z,73.90
2017-04-16T03:59:37.791Z,74.90
2017-04-16T04:00:37.011Z,74.00
2017-04-16T04:01:36.224Z,74.00
2017-04-16T04:02:35.449Z,73.90
2017-04-16T04:03:34.689Z,73.00
2017-04-16T04:04:33.950Z,72.70
2017-04-16T04:05:33.180Z,73.20
2017-04-16T04:06:32.383Z,73.00
2017-04-16T04:07:31.588Z,73.20
2017-04-16T04:08:30.815Z,73.90
2017-04-16T04:09:30.031Z,73.80
2017-04-16T04:10:29.244Z,73.40
2017-04-16T04:11:27.696Z,72.70
2017-04-16T04:12:26.899Z,71.30
2017-04-16T04:13:26.136Z,72.70
2017-04-16T04:14:25.360Z,71.00
2017-04-16T04:15:24.613Z,71.30
2017-04-16T04:16:23.836Z,71.70
2017-04-16T04:17:23.044Z,71.90
2017-04-16T04:18:22.276Z,71.90
2017-04-16T04:19:21.543Z,71.10
2017-04-16T04:20:20.756Z,71.50
2017-04-16T04:21:19.964Z,71.60
2017-04-16T04:22:19.168Z,72.40
2017-04-16T04:23:18.388Z,71.80
2017-04-16T04:24:17.615Z,72.50
2017-04-16T04:25:16.850Z,72.50
2017-04-16T04:26:16.077Z,72.90
2017-04-16T04:27:15.292Z,71.90
2017-04-16T04:28:15.232Z,72.50
2017-04-16T04:29:14.492Z,73.00
2017-04-16T04:30:13.697Z,73.30
2017-04-16T04:31:12.921Z,71.60
2017-04-16T04:32:12.140Z,71.00
2017-04-16T04:33:11.353Z,71.00
2017-04-16T04:34:10.593Z,71.60
2017-04-16T04:35:09.808Z,72.70
2017-04-16T04:36:09.024Z,71.40
2017-04-16T04:37:08.233Z,72.10
2017-04-16T04:38:07.488Z,72.90
2017-04-16T04:39:06.720Z,73.50
2017-04-16T04:40:05.928Z,73.10
2017-04-16T04:41:05.160Z,73.10
2017-04-16T04:42:04.368Z,72.70
2017-04-16T04:43:03.596Z,73.10
2017-04-16T04:44:02.838Z,71.60
2017-04-16T04:45:02.070Z,72.60
2017-04-16T04:46:01.308Z,73.80
2017-04-16T04:47:01.269Z,72.20
2017-04-16T04:48:00.484Z,70.80
2017-04-16T04:48:59.726Z,71.70
2017-04-16T04:49:58.982Z,71.80
2017-04-16T04:50:58.188Z,71.10
2017-04-16T04:51:57.397Z,72.10
2017-04-16T04:52:56.610Z,70.90
2017-04-16T04:53:55.819Z,70.60
2017-04-16T04:54:55.052Z,71.40
2017-04-16T04:55:54.348Z,71.40
2017-04-16T04:56:53.547Z,71.90
2017-04-16T04:57:52.753Z,71.10
2017-04-16T04:58:51.965Z,71.20
2017-04-16T04:59:51.192Z,71.20
2017-04-16T05:00:50.424Z,70.90
2017-04-16T05:01:49.628Z,71.10
2017-04-16T05:02:48.862Z,70.60
2017-04-16T05:03:48.069Z,71.00
2017-04-16T05:04:47.312Z,70.50
2017-04-16T05:05:46.537Z,70.90
2017-04-16T05:06:45.760Z,71.20
2017-04-16T05:07:45.000Z,71.70
2017-04-16T05:08:44.212Z,70.70
2017-04-16T05:09:43.453Z,70.90
2017-04-16T05:10:42.661Z,71.60
2017-04-16T05:11:41.864Z,71.40
2017-04-16T05:12:41.093Z,71.20
2017-04-16T05:13:40.313Z,70.30
2017-04-16T05:14:39.553Z,69.40
2017-04-16T05:15:38.789Z,69.50
2017-04-16T05:16:38.002Z,68.10
2017-04-16T05:17:37.213Z,70.00
2017-04-16T05:18:36.425Z,69.50
2017-04-16T05:19:35.680Z,70.30
2017-04-16T05:20:34.900Z,69.80
2017-04-16T05:21:34.113Z,69.50
2017-04-16T05:22:33.320Z,69.70
2017-04-16T05:23:32.561Z,68.20
2017-04-16T05:24:32.108Z,67.90
2017-04-16T05:25:31.397Z,68.40
2017-04-16T05:26:30.613Z,66.10
2017-04-16T05:27:30.572Z,66.40
2017-04-16T05:28:30.521Z,67.70
2017-04-16T05:29:29.829Z,67.80
2017-04-16T05:30:29.076Z,68.10
2017-04-16T05:31:28.333Z,66.70
2017-04-16T05:32:27.548Z,67.80
2017-04-16T05:33:26.760Z,68.20
2017-04-16T05:34:26.022Z,67.70
2017-04-16T05:35:25.271Z,67.50
2017-04-16T05:36:24.480Z,66.40
2017-04-16T05:37:23.695Z,66.60
2017-04-16T05:38:22.908Z,67.40
2017-04-16T05:39:22.161Z,65.40
2017-04-16T05:40:21.413Z,67.30
2017-04-16T05:41:20.626Z,67.40
2017-04-16T05:42:19.835Z,67.80
2017-04-16T05:43:19.039Z,68.20
2017-04-16T05:44:18.262Z,67.10
2017-04-16T05:45:17.501Z,68.10
2017-04-16T05:46:16.715Z,67.00
2017-04-16T05:47:15.928Z,66.60
2017-04-16T05:48:15.150Z,66.80
2017-04-16T05:49:14.405Z,67.00
2017-04-16T05:50:13.648Z,65.20
2017-04-16T05:51:12.092Z,65.10
2017-04-16T05:52:11.309Z,66.50
2017-04-16T05:53:10.517Z,66.60
2017-04-16T05:54:09.732Z,65.50
2017-04-16T05:55:08.968Z,65.40
2017-04-16T05:56:08.168Z,66.80
2017-04-16T05:57:07.377Z,64.90
2017-04-16T05:58:06.596Z,64.20
2017-04-16T05:59:05.805Z,66.00
2017-04-16T06:00:05.328Z,67.60
2017-04-16T06:01:03.776Z,67.60
2017-04-16T06:02:03.006Z,65.80
2017-04-16T06:03:02.220Z,65.50
2017-04-16T06:04:01.431Z,65.00
2017-04-16T06:05:00.659Z,63.70
2017-04-16T06:05:59.889Z,62.80
2017-04-16T06:06:59.132Z,62.80
2017-04-16T06:07:58.500Z,62.20
2017-04-16T06:08:57.734Z,63.40
2017-04-16T06:09:56.948Z,64.10
2017-04-16T06:10:55.412Z,64.00
2017-04-16T06:11:54.611Z,64.10
2017-04-16T06:12:53.858Z,64.80
2017-04-16T06:13:53.077Z,64.50
2017-04-16T06:14:52.297Z,64.90
2017-04-16T06:15:51.542Z,63.20
2017-04-16T06:16:50.764Z,61.90
2017-04-16T06:17:49.976Z,62.50
2017-04-16T06:18:49.265Z,63.00
2017-04-16T06:19:48.485Z,63.50
2017-04-16T06:20:47.724Z,63.60
2017-04-16T06:21:53.548Z,62.20
2017-04-16T06:22:52.748Z,60.90
2017-04-16T06:23:51.968Z,61.50
2017-04-16T06:24:51.172Z,62.50
2017-04-16T06:25:50.399Z,61.10
2017-04-16T06:26:49.604Z,60.60
2017-04-16T06:27:48.799Z,60.60
2017-04-16T06:28:48.013Z,59.50
2017-04-16T06:29:47.259Z,57.80
2017-04-16T06:30:46.484Z,58.90
2017-04-16T06:31:45.737Z,58.20
2017-04-16T06:32:44.942Z,58.20
2017-04-16T06:33:44.156Z,56.30
2017-04-16T06:34:43.394Z,56.80
2017-04-16T06:35:43.006Z,55.70
2017-04-16T06:36:42.219Z,56.50
2017-04-16T06:37:41.425Z,57.00
2017-04-16T06:38:40.648Z,57.10
2017-04-16T06:39:39.856Z,55.10
2017-04-16T06:40:39.425Z,56.90
2017-04-16T06:41:38.627Z,56.80
2017-04-16T06:42:37.844Z,59.00
2017-04-16T06:43:37.065Z,54.90
2017-04-16T06:44:36.278Z,56.10
2017-04-16T06:45:35.476Z,57.50
2017-04-16T06:46:34.721Z,57.00
2017-04-16T06:47:34.688Z,58.40
2017-04-16T06:48:33.965Z,60.10
2017-04-16T06:49:33.560Z,60.60
2017-04-16T06:50:32.772Z,59.10
2017-04-16T06:51:32.000Z,58.00
2017-04-16T06:52:31.206Z,59.20
2017-04-16T06:53:30.426Z,59.00
2017-04-16T06:54:29.649Z,58.40
2017-04-16T06:55:28.847Z,57.10
2017-04-16T06:56:28.089Z,55.90
2017-04-16T06:57:27.312Z,57.80
2017-04-16T06:58:26.524Z,58.90
2017-04-16T06:59:25.738Z,57.70
2017-04-16T07:00:24.945Z,57.00
2017-04-16T07:01:24.167Z,58.20
2017-04-16T07:02:23.376Z,58.80
2017-04-16T07:03:22.584Z,58.60
2017-04-16T07:04:21.796Z,59.00
2017-04-16T07:05:21.024Z,58.00
2017-04-16T07:06:20.265Z,58.10
2017-04-16T07:07:19.464Z,58.10
2017-04-16T07:08:18.671Z,58.70
2017-04-16T07:09:17.876Z,58.80
2017-04-16T07:10:17.099Z,59.00
2017-04-16T07:11:16.339Z,57.80
2017-04-16T07:12:16.284Z,58.20
2017-04-16T07:13:15.496Z,58.00
2017-04-16T07:14:14.716Z,58.80
2017-04-16T07:15:13.921Z,60.00
2017-04-16T07:16:13.448Z,58.80
2017-04-16T07:17:12.670Z,60.20
2017-04-16T07:18:11.875Z,58.90
2017-04-16T07:19:11.084Z,57.40
2017-04-16T07:20:10.523Z,57.80
2017-04-16T07:21:10.417Z,58.90
2017-04-16T07:22:09.656Z,58.20
2017-04-16T07:23:08.864Z,58.20
2017-04-16T07:24:08.084Z,56.90
2017-04-16T07:25:07.352Z,59.00
2017-04-16T07:26:06.569Z,58.80
2017-04-16T07:27:05.845Z,55.80
2017-04-16T07:28:05.055Z,58.50
2017-04-16T07:29:04.257Z,59.10
2017-04-16T07:30:03.507Z,59.80
2017-04-16T07:31:02.732Z,60.00
2017-04-16T07:32:01.972Z,59.30
2017-04-16T07:33:01.203Z,59.00
2017-04-16T07:34:01.165Z,60.90
2017-04-16T07:35:00.375Z,59.10
2017-04-16T07:35:59.584Z,58.30
2017-04-16T07:36:58.876Z,55.90
2017-04-16T07:37:58.197Z,58.10
2017-04-16T07:38:57.413Z,58.10
2017-04-16T07:39:56.645Z,59.50
2017-04-16T07:40:55.854Z,59.30
2017-04-16T07:41:55.097Z,58.60
2017-04-16T07:42:54.360Z,57.40
2017-04-16T07:43:53.568Z,58.40
2017-04-16T07:44:52.783Z,58.70
2017-04-16T07:45:51.997Z,60.10
2017-04-16T07:46:52.008Z,59.50
2017-04-16T07:47:51.961Z,59.30
2017-04-16T07:48:51.173Z,59.40
2017-04-16T07:49:50.385Z,60.60
2017-04-16T07:50:49.592Z,60.20
2017-04-16T07:51:49.180Z,60.90
2017-04-16T07:52:48.394Z,59.40
2017-04-16T07:53:47.620Z,57.00
2017-04-16T07:54:46.914Z,56.90
2017-04-16T07:55:46.139Z,59.50
2017-04-16T07:56:45.382Z,58.80
2017-04-16T07:57:44.624Z,59.60
2017-04-16T07:58:43.836Z,58.40
2017-04-16T07:59:43.052Z,57.50
2017-04-16T08:00:42.257Z,58.50
2017-04-16T08:01:41.464Z,57.30
2017-04-16T08:02:40.698Z,58.70
2017-04-16T08:03:39.917Z,59.90
2017-04-16T08:04:39.144Z,59.50
2017-04-16T08:05:38.352Z,59.20
2017-04-16T08:06:37.565Z,57.00
2017-04-16T08:07:36.796Z,57.90
2017-04-16T08:08:36.025Z,57.80
2017-04-16T08:09:35.237Z,57.60
2017-04-16T08:10:34.448Z,58.70
2017-04-16T08:11:33.679Z,59.40
2017-04-16T08:12:32.968Z,58.50
2017-04-16T08:13:32.198Z,59.80
2017-04-16T08:14:31.416Z,61.30
2017-04-16T08:15:30.652Z,62.00
2017-04-16T08:16:29.893Z,60.80
2017-04-16T08:17:29.872Z,63.50
2017-04-16T08:18:29.093Z,62.60
2017-04-16T08:19:28.306Z,63.50
2017-04-16T08:20:27.516Z,64.30
2017-04-16T08:21:26.716Z,62.00
2017-04-16T08:22:25.956Z,63.90
2017-04-16T08:23:25.167Z,64.80
2017-04-16T08:24:24.385Z,64.00
2017-04-16T08:25:23.605Z,65.30
2017-04-16T08:26:22.820Z,63.70
2017-04-16T08:27:22.397Z,64.70
2017-04-16T08:28:21.624Z,63.20
2017-04-16T08:29:20.837Z,61.00
2017-04-16T08:30:20.089Z,61.80
2017-04-16T08:31:19.284Z,61.20
2017-04-16T08:32:18.492Z,57.60
2017-04-16T08:33:17.720Z,59.00
2017-04-16T08:34:16.924Z,56.00
2017-04-16T08:35:16.160Z,54.70
2017-04-16T08:36:15.360Z,57.70
2017-04-16T08:37:15.328Z,59.20
2017-04-16T08:38:14.566Z,58.60
2017-04-16T08:39:13.776Z,58.60
2017-04-16T08:40:12.988Z,53.70
2017-04-16T08:41:12.198Z,54.20
2017-04-16T08:42:10.627Z,54.20
2017-04-16T08:43:09.861Z,54.50
2017-04-16T08:44:09.075Z,51.50
2017-04-16T08:45:08.284Z,52.90
2017-04-16T08:46:07.500Z,52.80
2017-04-16T08:47:06.713Z,54.10
2017-04-16T08:48:05.953Z,55.80
2017-04-16T08:49:05.175Z,52.90
2017-04-16T08:50:04.380Z,51.70
2017-04-16T08:51:03.602Z,51.20
2017-04-16T08:52:02.815Z,50.30
2017-04-16T08:53:02.056Z,51.50
2017-04-16T08:54:01.287Z,52.30
2017-04-16T08:55:00.546Z,52.30
2017-04-16T08:55:59.747Z,52.30
2017-04-16T08:56:58.982Z,54.80
2017-04-16T08:57:58.229Z,54.30
2017-04-16T08:58:57.444Z,55.60
2017-04-16T08:59:56.661Z,55.20
2017-04-16T09:00:55.872Z,53.10
2017-04-16T09:01:55.085Z,55.30
2017-04-16T09:02:54.664Z,55.60
2017-04-16T09:03:53.880Z,54.20
2017-04-16T09:04:53.088Z,56.00
2017-04-16T09:05:52.302Z,57.10
2017-04-16T09:06:51.513Z,55.80
2017-04-16T09:07:50.712Z,56.80
2017-04-16T09:08:49.943Z,56.20
2017-04-16T09:09:49.151Z,56.10
2017-04-16T09:10:48.380Z,56.10
2017-04-16T09:11:47.585Z,56.00
2017-04-16T09:12:46.793Z,54.60
2017-04-16T09:13:46.025Z,52.40
2017-04-16T09:14:45.241Z,53.70
2017-04-16T09:15:45.075Z,50.70
2017-04-16T09:16:44.288Z,51.10
2017-04-16T09:17:43.527Z,49.80
2017-04-16T09:18:42.756Z,49.50
2017-04-16T09:19:41.960Z,50.80
2017-04-16T09:20:41.164Z,53.20
2017-04-16T09:21:41.112Z,55.00
2017-04-16T09:22:40.332Z,55.30
2017-04-16T09:23:39.553Z,53.10
2017-04-16T09:24:38.759Z,54.90
2017-04-16T09:25:37.964Z,54.70
2017-04-16T09:26:37.180Z,54.60
2017-04-16T09:27:36.392Z,52.30
2017-04-16T09:28:35.688Z,51.80
2017-04-16T09:29:34.916Z,48.00
2017-04-16T09:30:34.159Z,46.40
2017-04-16T09:31:33.376Z,42.70
2017-04-16T09:32:32.573Z,42.70
2017-04-16T09:33:31.820Z,38.90
2017-04-16T09:34:31.032Z,39.80
2017-04-16T09:35:30.252Z,38.70
2017-04-16T09:36:29.481Z,41.10
2017-04-16T09:37:27.960Z,41.20
2017-04-16T09:38:27.561Z,36.90
2017-04-16T09:39:26.784Z,38.30
2017-04-16T09:40:25.992Z,36.10
2017-04-16T09:41:25.224Z,37.70
2017-04-16T09:42:24.430Z,37.50
2017-04-16T09:43:23.644Z,37.10
2017-04-16T09:44:22.888Z,36.10
2017-04-16T09:45:22.097Z,37.90
2017-04-16T09:46:21.325Z,37.50
2017-04-16T09:47:20.552Z,39.10
2017-04-16T09:48:19.759Z,40.60
2017-04-16T09:49:19.008Z,42.00
2017-04-16T09:50:18.235Z,40.40
2017-04-16T09:51:17.444Z,40.50
2017-04-16T09:52:16.743Z,40.40
2017-04-16T09:53:16.701Z,42.80
2017-04-16T09:54:15.950Z,44.10
2017-04-16T09:55:15.160Z,45.90
2017-04-16T09:56:14.389Z,47.80
2017-04-16T09:57:14.370Z,51.40
2017-04-16T09:58:14.048Z,51.20
2017-04-16T09:59:13.281Z,51.90
2017-04-16T10:00:12.591Z,54.90
2017-04-16T10:01:11.814Z,54.80
2017-04-16T10:02:11.108Z,54.70
2017-04-16T10:03:10.320Z,53.10
2017-04-16T10:04:09.557Z,49.70
2017-04-16T10:05:09.026Z,49.20
2017-04-16T10:06:08.244Z,48.30
2017-04-16T10:07:07.471Z,44.70
2017-04-16T10:08:06.711Z,40.70
2017-04-16T10:09:06.013Z,43.40
2017-04-16T10:10:05.228Z,37.50
2017-04-16T10:11:04.443Z,37.60
2017-04-16T10:12:03.663Z,36.30
2017-04-16T10:13:02.885Z,36.20
2017-04-16T10:14:02.492Z,34.10
2017-04-16T10:15:01.775Z,35.20
2017-04-16T10:16:01.016Z,34.80
2017-04-16T10:17:00.251Z,35.40
2017-04-16T10:17:59.461Z,40.60
2017-04-16T10:18:57.907Z,40.60
2017-04-16T10:19:57.140Z,41.40
2017-04-16T10:20:56.361Z,39.20
2017-04-16T10:21:55.585Z,42.40
2017-04-16T10:22:54.819Z,42.70
2017-04-16T10:23:54.035Z,42.60
2017-04-16T10:24:53.305Z,41.00
2017-04-16T10:25:52.527Z,42.60
2017-04-16T10:26:51.741Z,40.10
2017-04-16T10:27:50.953Z,38.00
2017-04-16T10:28:50.185Z,38.00
2017-04-16T10:29:49.432Z,38.10
2017-04-16T10:30:48.672Z,38.00
2017-04-16T10:31:47.889Z,38.60
2017-04-16T10:32:47.101Z,38.20
2017-04-16T10:33:46.317Z,39.80
2017-04-16T10:34:45.556Z,42.40
2017-04-16T10:35:44.781Z,45.30
2017-04-16T10:36:44.728Z,50.00
2017-04-16T10:37:43.952Z,50.90
2017-04-16T10:38:43.200Z,57.30
2017-04-16T10:39:42.453Z,61.80
2017-04-16T10:40:41.668Z,62.70
2017-04-16T10:41:40.881Z,63.60
2017-04-16T10:42:40.096Z,63.70
2017-04-16T10:43:39.305Z,66.10
2017-04-16T10:44:38.539Z,64.70
2017-04-16T10:45:37.768Z,61.00
2017-04-16T10:46:36.984Z,67.60
2017-04-16T10:47:36.217Z,67.30
2017-04-16T10:48:35.471Z,62.50
2017-04-16T10:49:34.697Z,67.50
2017-04-16T10:50:33.904Z,67.80
2017-04-16T10:51:33.116Z,66.30
2017-04-16T10:52:32.383Z,73.40
2017-04-16T10:53:31.623Z,62.10
2017-04-16T10:54:30.836Z,60.00
2017-04-16T10:55:30.076Z,60.80
2017-04-16T10:56:29.319Z,49.50
2017-04-16T10:57:28.567Z,58.60
2017-04-16T10:58:27.864Z,50.50
2017-04-16T10:59:27.160Z,50.30
2017-04-16T11:00:26.708Z,49.90
2017-04-16T11:01:25.920Z,47.10
2017-04-16T11:02:25.125Z,42.80
2017-04-16T11:03:24.368Z,42.40
2017-04-16T11:04:23.604Z,43.30
2017-04-16T11:05:22.848Z,41.10
2017-04-16T11:06:22.078Z,43.60
2017-04-16T11:07:21.289Z,42.60
2017-04-16T11:08:20.501Z,39.90
2017-04-16T11:09:19.769Z,39.00
2017-04-16T11:10:19.016Z,44.50
2017-04-16T11:11:18.229Z,48.30
2017-04-16T11:12:17.456Z,50.30
2017-04-16T11:13:16.668Z,50.80
2017-04-16T11:14:15.872Z,53.80
2017-04-16T11:15:15.855Z,59.50
2017-04-16T11:16:15.069Z,64.80
2017-04-16T11:17:14.292Z,68.20
2017-04-16T11:18:12.728Z,68.20
2017-04-16T11:19:11.941Z,69.90
2017-04-16T11:20:11.225Z,70.90
2017-04-16T11:21:10.448Z,64.20
2017-04-16T11:22:10.788Z,61.60
2017-04-16T11:23:10.001Z,66.60
2017-04-16T11:24:09.249Z,57.60
2017-04-16T11:25:08.796Z,62.70
2017-04-16T11:26:08.012Z,61.60
2017-04-16T11:27:07.225Z,59.10
2017-04-16T11:28:06.447Z,57.30
2017-04-16T11:29:05.704Z,59.00
2017-04-16T11:30:04.968Z,55.70
2017-04-16T11:31:04.265Z,51.60
2017-04-16T11:32:03.512Z,56.70
2017-04-16T11:33:02.724Z,62.90
2017-04-16T11:34:01.929Z,61.80
2017-04-16T11:35:01.132Z,65.30
2017-04-16T11:36:00.388Z,60.90
2017-04-16T11:36:59.600Z,63.70
2017-04-16T11:37:58.053Z,63.60
2017-04-16T11:38:57.292Z,66.70
2017-04-16T11:39:56.517Z,65.50
2017-04-16T11:40:55.785Z,57.70
2017-04-16T11:41:55.068Z,54.10
2017-04-16T11:42:54.296Z,51.80
2017-04-16T11:43:53.522Z,52.20
2017-04-16T11:44:52.772Z,49.70
2017-04-16T11:45:52.004Z,48.80
2017-04-16T11:46:51.223Z,40.70
2017-04-16T11:47:50.463Z,44.30
2017-04-16T11:48:49.897Z,44.40
2017-04-16T11:49:49.113Z,41.80
2017-04-16T11:50:48.352Z,41.10
2017-04-16T11:51:47.564Z,43.50
2017-04-16T11:52:46.819Z,41.70
2017-04-16T11:53:46.077Z,40.00
2017-04-16T11:54:45.293Z,37.00
2017-04-16T11:55:44.548Z,41.50
2017-04-16T11:56:43.769Z,38.30
2017-04-16T11:57:43.057Z,38.90
2017-04-16T11:58:42.272Z,36.60
2017-04-16T11:59:41.488Z,34.90
2017-04-16T12:00:41.052Z,37.00
2017-04-16T12:01:40.301Z,34.90
2017-04-16T12:02:39.508Z,34.10
2017-04-16T12:03:39.488Z,33.60
2017-04-16T12:04:38.720Z,36.00
2017-04-16T12:05:37.940Z,34.70
2017-04-16T12:06:37.173Z,35.70
2017-04-16T12:07:36.445Z,36.00
2017-04-16T12:08:35.693Z,35.20
2017-04-16T12:09:34.900Z,33.90
2017-04-16T12:10:34.124Z,33.00
2017-04-16T12:11:33.366Z,35.00
2017-04-16T12:12:32.597Z,36.30
2017-04-16T12:13:31.932Z,35.50
2017-04-16T12:14:31.144Z,34.00
2017-04-16T12:15:30.368Z,33.40
2017-04-16T12:16:29.617Z,35.50
2017-04-16T12:17:28.071Z,35.60
2017-04-16T12:18:27.336Z,36.70
2017-04-16T12:19:26.634Z,36.30
2017-04-16T12:20:25.880Z,36.00
2017-04-16T12:21:25.273Z,36.80
2017-04-16T12:22:24.488Z,37.30
2017-04-16T12:23:23.741Z,35.10
2017-04-16T12:24:22.993Z,36.60
2017-04-16T12:25:22.208Z,36.20
2017-04-16T12:26:21.453Z,37.80
2017-04-16T12:27:20.677Z,35.50
2017-04-16T12:28:19.892Z,36.50
2017-04-16T12:29:19.868Z,37.70
2017-04-16T12:30:19.109Z,39.00
2017-04-16T12:31:18.393Z,38.70
2017-04-16T12:32:17.629Z,38.10
2017-04-16T12:33:16.836Z,36.50
2017-04-16T12:34:16.049Z,36.80
2017-04-16T12:35:15.336Z,38.00
2017-04-16T12:36:14.876Z,38.90
2017-04-16T12:37:14.140Z,43.50
2017-04-16T12:38:12.579Z,43.70
2017-04-16T12:39:11.792Z,47.20
2017-04-16T12:40:11.058Z,51.90
2017-04-16T12:41:10.292Z,52.50
2017-04-16T12:42:09.587Z,53.10
2017-04-16T12:43:08.804Z,53.80